sensor_id;sensor_type;location;lat;lon;timestamp;P1;durP1;ratioP1;P2;durP2;ratioP2
63201;SDS011;49296;48.188;11.566;2023-04-03T00:02:05;9.40;;;6.13;;
63201;SDS011;49296;48.188;11.566;2023-04-03T00:04:32;12.45;;;8.05;;
63201;SDS011;49296;48.188;11.566;2023-04-03T00:06:59;12.07;;;7.18;;
63201;SDS011;49296;48.188;11.566;2023-04-03T00:09:26;10.27;;;6.03;;
63201;SDS011;49296;48.188;11.566;2023-04-03T00:11:55;8.60;;;6.03;;
63201;SDS011;49296;48.188;11.566;2023-04-03T00:14:21;10.63;;;6.53;;
63201;SDS011;49296;48.188;11.566;2023-04-03T00:16:48;10.07;;;6.95;;
63201;SDS011;49296;48.188;11.566;2023-04-03T00:19:15;9.45;;;6.57;;
63201;SDS011;49296;48.188;11.566;2023-04-03T00:21:42;10.95;;;6.47;;
63201;SDS011;49296;48.188;11.566;2023-04-03T00:24:09;9.75;;;5.72;;
63201;SDS011;49296;48.188;11.566;2023-04-03T00:26:36;10.32;;;6.65;;
63201;SDS011;49296;48.188;11.566;2023-04-03T00:29:04;8.43;;;5.75;;
63201;SDS011;49296;48.188;11.566;2023-04-03T00:31:31;9.48;;;6.57;;
63201;SDS011;49296;48.188;11.566;2023-04-03T00:33:58;9.45;;;5.72;;
63201;SDS011;49296;48.188;11.566;2023-04-03T00:36:24;9.18;;;5.85;;
63201;SDS011;49296;48.188;11.566;2023-04-03T00:38:51;9.02;;;6.00;;
63201;SDS011;49296;48.188;11.566;2023-04-03T00:41:18;9.75;;;5.70;;
63201;SDS011;49296;48.188;11.566;2023-04-03T00:43:45;10.40;;;6.53;;
63201;SDS011;49296;48.188;11.566;2023-04-03T00:46:13;8.98;;;5.85;;
63201;SDS011;49296;48.188;11.566;2023-04-03T00:48:40;8.85;;;5.53;;
63201;SDS011;49296;48.188;11.566;2023-04-03T00:51:09;9.57;;;5.88;;
63201;SDS011;49296;48.188;11.566;2023-04-03T00:53:40;8.85;;;5.90;;
63201;SDS011;49296;48.188;11.566;2023-04-03T00:56:11;10.90;;;6.35;;
63201;SDS011;49296;48.188;11.566;2023-04-03T00:58:41;13.02;;;6.20;;
63201;SDS011;49296;48.188;11.566;2023-04-03T01:01:16;10.50;;;6.18;;
63201;SDS011;49296;48.188;11.566;2023-04-03T01:03:47;8.30;;;5.53;;
63201;SDS011;49296;48.188;11.566;2023-04-03T01:06:15;9.48;;;5.53;;
63201;SDS011;49296;48.188;11.566;2023-04-03T01:08:43;8.48;;;5.80;;
63201;SDS011;49296;48.188;11.566;2023-04-03T01:11:11;9.23;;;6.20;;
63201;SDS011;49296;48.188;11.566;2023-04-03T01:13:38;9.18;;;6.05;;
63201;SDS011;49296;48.188;11.566;2023-04-03T01:16:05;9.32;;;6.28;;
63201;SDS011;49296;48.188;11.566;2023-04-03T01:18:36;9.95;;;6.60;;
63201;SDS011;49296;48.188;11.566;2023-04-03T01:21:11;9.40;;;5.57;;
63201;SDS011;49296;48.188;11.566;2023-04-03T01:24:16;9.98;;;6.35;;
63201;SDS011;49296;48.188;11.566;2023-04-03T01:27:07;10.52;;;5.93;;
63201;SDS011;49296;48.188;11.566;2023-04-03T01:29:37;9.32;;;5.50;;
63201;SDS011;49296;48.188;11.566;2023-04-03T01:32:05;8.57;;;5.55;;
63201;SDS011;49296;48.188;11.566;2023-04-03T01:34:32;10.35;;;5.82;;
63201;SDS011;49296;48.188;11.566;2023-04-03T01:36:59;9.07;;;5.70;;
63201;SDS011;49296;48.188;11.566;2023-04-03T01:39:25;9.98;;;5.70;;
63201;SDS011;49296;48.188;11.566;2023-04-03T01:41:52;8.20;;;5.50;;
63201;SDS011;49296;48.188;11.566;2023-04-03T01:44:19;7.57;;;5.30;;
63201;SDS011;49296;48.188;11.566;2023-04-03T01:46:46;8.15;;;5.30;;
63201;SDS011;49296;48.188;11.566;2023-04-03T01:49:14;9.98;;;5.80;;
63201;SDS011;49296;48.188;11.566;2023-04-03T01:51:40;7.30;;;4.93;;
63201;SDS011;49296;48.188;11.566;2023-04-03T01:54:07;8.25;;;5.10;;
63201;SDS011;49296;48.188;11.566;2023-04-03T01:56:33;8.10;;;5.28;;
63201;SDS011;49296;48.188;11.566;2023-04-03T01:59:00;9.07;;;5.30;;
63201;SDS011;49296;48.188;11.566;2023-04-03T02:01:27;8.82;;;5.43;;
63201;SDS011;49296;48.188;11.566;2023-04-03T02:03:54;11.35;;;5.93;;
63201;SDS011;49296;48.188;11.566;2023-04-03T02:06:22;8.63;;;5.60;;
63201;SDS011;49296;48.188;11.566;2023-04-03T02:08:48;8.68;;;5.10;;
63201;SDS011;49296;48.188;11.566;2023-04-03T02:11:15;8.07;;;5.10;;
63201;SDS011;49296;48.188;11.566;2023-04-03T02:13:41;8.27;;;5.13;;
63201;SDS011;49296;48.188;11.566;2023-04-03T02:16:09;7.57;;;4.93;;
63201;SDS011;49296;48.188;11.566;2023-04-03T02:18:36;8.98;;;5.65;;
63201;SDS011;49296;48.188;11.566;2023-04-03T02:21:03;7.65;;;5.03;;
63201;SDS011;49296;48.188;11.566;2023-04-03T02:23:31;8.88;;;5.00;;
63201;SDS011;49296;48.188;11.566;2023-04-03T02:26:04;10.35;;;5.07;;
63201;SDS011;49296;48.188;11.566;2023-04-03T02:28:32;11.07;;;5.72;;
63201;SDS011;49296;48.188;11.566;2023-04-03T02:30:59;8.48;;;5.22;;
63201;SDS011;49296;48.188;11.566;2023-04-03T02:33:26;9.70;;;5.53;;
63201;SDS011;49296;48.188;11.566;2023-04-03T02:35:53;8.02;;;5.18;;
63201;SDS011;49296;48.188;11.566;2023-04-03T02:38:20;8.07;;;4.78;;
63201;SDS011;49296;48.188;11.566;2023-04-03T02:40:48;8.35;;;5.40;;
63201;SDS011;49296;48.188;11.566;2023-04-03T02:43:16;7.10;;;5.05;;
63201;SDS011;49296;48.188;11.566;2023-04-03T02:45:43;8.25;;;4.85;;
63201;SDS011;49296;48.188;11.566;2023-04-03T02:48:09;7.93;;;4.88;;
63201;SDS011;49296;48.188;11.566;2023-04-03T02:50:37;8.30;;;4.50;;
63201;SDS011;49296;48.188;11.566;2023-04-03T02:53:03;8.52;;;5.47;;
63201;SDS011;49296;48.188;11.566;2023-04-03T02:55:30;7.03;;;4.60;;
63201;SDS011;49296;48.188;11.566;2023-04-03T02:57:58;8.05;;;5.20;;
63201;SDS011;49296;48.188;11.566;2023-04-03T03:00:25;8.25;;;4.63;;
63201;SDS011;49296;48.188;11.566;2023-04-03T03:02:51;7.68;;;4.57;;
63201;SDS011;49296;48.188;11.566;2023-04-03T03:05:18;7.20;;;4.68;;
63201;SDS011;49296;48.188;11.566;2023-04-03T03:07:44;7.55;;;4.85;;
63201;SDS011;49296;48.188;11.566;2023-04-03T03:10:11;5.57;;;4.03;;
63201;SDS011;49296;48.188;11.566;2023-04-03T03:12:38;7.55;;;4.82;;
63201;SDS011;49296;48.188;11.566;2023-04-03T03:15:07;6.10;;;4.20;;
63201;SDS011;49296;48.188;11.566;2023-04-03T03:17:34;7.43;;;4.47;;
63201;SDS011;49296;48.188;11.566;2023-04-03T03:20:01;9.20;;;4.57;;
63201;SDS011;49296;48.188;11.566;2023-04-03T03:22:28;7.63;;;4.32;;
63201;SDS011;49296;48.188;11.566;2023-04-03T03:24:55;7.68;;;4.45;;
63201;SDS011;49296;48.188;11.566;2023-04-03T03:27:21;8.15;;;4.25;;
63201;SDS011;49296;48.188;11.566;2023-04-03T03:29:49;6.22;;;3.97;;
63201;SDS011;49296;48.188;11.566;2023-04-03T03:32:17;7.60;;;4.40;;
63201;SDS011;49296;48.188;11.566;2023-04-03T03:34:43;6.70;;;4.30;;
63201;SDS011;49296;48.188;11.566;2023-04-03T03:37:10;5.88;;;4.00;;
63201;SDS011;49296;48.188;11.566;2023-04-03T03:39:37;8.63;;;4.78;;
63201;SDS011;49296;48.188;11.566;2023-04-03T03:42:03;6.75;;;4.68;;
63201;SDS011;49296;48.188;11.566;2023-04-03T03:44:30;6.28;;;4.10;;
63201;SDS011;49296;48.188;11.566;2023-04-03T03:46:57;8.02;;;3.92;;
63201;SDS011;49296;48.188;11.566;2023-04-03T03:49:25;7.78;;;4.47;;
63201;SDS011;49296;48.188;11.566;2023-04-03T03:51:51;6.25;;;4.38;;
63201;SDS011;49296;48.188;11.566;2023-04-03T03:54:18;8.50;;;4.20;;
63201;SDS011;49296;48.188;11.566;2023-04-03T03:56:44;6.40;;;4.18;;
63201;SDS011;49296;48.188;11.566;2023-04-03T03:59:11;7.78;;;4.68;;
63201;SDS011;49296;48.188;11.566;2023-04-03T04:01:38;7.10;;;4.30;;
63201;SDS011;49296;48.188;11.566;2023-04-03T04:04:08;6.57;;;3.90;;
63201;SDS011;49296;48.188;11.566;2023-04-03T04:06:36;8.55;;;4.57;;
63201;SDS011;49296;48.188;11.566;2023-04-03T04:09:03;7.95;;;4.15;;
63201;SDS011;49296;48.188;11.566;2023-04-03T04:11:29;7.13;;;4.07;;
63201;SDS011;49296;48.188;11.566;2023-04-03T04:13:57;6.30;;;4.25;;
63201;SDS011;49296;48.188;11.566;2023-04-03T04:16:24;7.18;;;4.18;;
63201;SDS011;49296;48.188;11.566;2023-04-03T04:18:50;6.30;;;4.00;;
63201;SDS011;49296;48.188;11.566;2023-04-03T04:21:17;6.10;;;3.92;;
63201;SDS011;49296;48.188;11.566;2023-04-03T04:23:45;7.20;;;4.57;;
63201;SDS011;49296;48.188;11.566;2023-04-03T04:26:11;6.78;;;4.20;;
63201;SDS011;49296;48.188;11.566;2023-04-03T04:28:38;6.68;;;3.63;;
63201;SDS011;49296;48.188;11.566;2023-04-03T04:31:05;7.18;;;4.30;;
63201;SDS011;49296;48.188;11.566;2023-04-03T04:33:32;6.43;;;4.18;;
63201;SDS011;49296;48.188;11.566;2023-04-03T04:35:58;7.18;;;4.07;;
63201;SDS011;49296;48.188;11.566;2023-04-03T04:38:25;6.30;;;4.32;;
63201;SDS011;49296;48.188;11.566;2023-04-03T04:40:53;8.65;;;5.28;;
63201;SDS011;49296;48.188;11.566;2023-04-03T04:43:20;7.75;;;4.75;;
63201;SDS011;49296;48.188;11.566;2023-04-03T04:45:46;7.05;;;4.47;;
63201;SDS011;49296;48.188;11.566;2023-04-03T04:48:13;6.75;;;4.45;;
63201;SDS011;49296;48.188;11.566;2023-04-03T04:50:40;8.27;;;4.55;;
63201;SDS011;49296;48.188;11.566;2023-04-03T04:53:06;7.10;;;4.15;;
63201;SDS011;49296;48.188;11.566;2023-04-03T04:55:33;6.57;;;4.07;;
63201;SDS011;49296;48.188;11.566;2023-04-03T04:58:01;6.78;;;4.38;;
63201;SDS011;49296;48.188;11.566;2023-04-03T05:00:28;11.50;;;4.70;;
63201;SDS011;49296;48.188;11.566;2023-04-03T05:02:54;7.38;;;4.40;;
63201;SDS011;49296;48.188;11.566;2023-04-03T05:05:21;6.82;;;4.22;;
63201;SDS011;49296;48.188;11.566;2023-04-03T05:07:48;6.95;;;4.78;;
63201;SDS011;49296;48.188;11.566;2023-04-03T05:10:15;9.65;;;4.53;;
63201;SDS011;49296;48.188;11.566;2023-04-03T05:12:41;8.52;;;4.63;;
63201;SDS011;49296;48.188;11.566;2023-04-03T05:15:10;7.75;;;4.82;;
63201;SDS011;49296;48.188;11.566;2023-04-03T05:17:36;7.28;;;4.50;;
63201;SDS011;49296;48.188;11.566;2023-04-03T05:20:04;6.68;;;4.15;;
63201;SDS011;49296;48.188;11.566;2023-04-03T05:22:32;7.60;;;4.45;;
63201;SDS011;49296;48.188;11.566;2023-04-03T05:24:59;9.13;;;4.78;;
63201;SDS011;49296;48.188;11.566;2023-04-03T05:27:25;6.05;;;4.00;;
63201;SDS011;49296;48.188;11.566;2023-04-03T05:29:53;11.20;;;4.43;;
63201;SDS011;49296;48.188;11.566;2023-04-03T05:32:22;8.45;;;4.40;;
63201;SDS011;49296;48.188;11.566;2023-04-03T05:34:49;7.97;;;4.63;;
63201;SDS011;49296;48.188;11.566;2023-04-03T05:37:16;9.75;;;5.43;;
63201;SDS011;49296;48.188;11.566;2023-04-03T05:39:43;7.43;;;4.65;;
63201;SDS011;49296;48.188;11.566;2023-04-03T05:42:10;8.23;;;5.13;;
63201;SDS011;49296;48.188;11.566;2023-04-03T05:44:37;8.00;;;4.78;;
63201;SDS011;49296;48.188;11.566;2023-04-03T05:47:05;9.20;;;5.18;;
63201;SDS011;49296;48.188;11.566;2023-04-03T05:49:34;7.07;;;4.30;;
63201;SDS011;49296;48.188;11.566;2023-04-03T05:52:01;7.35;;;4.72;;
63201;SDS011;49296;48.188;11.566;2023-04-03T05:54:29;7.18;;;4.75;;
63201;SDS011;49296;48.188;11.566;2023-04-03T05:56:56;8.25;;;5.25;;
63201;SDS011;49296;48.188;11.566;2023-04-03T05:59:23;7.97;;;4.78;;
63201;SDS011;49296;48.188;11.566;2023-04-03T06:01:49;7.55;;;4.65;;
63201;SDS011;49296;48.188;11.566;2023-04-03T06:04:16;8.10;;;5.18;;
63201;SDS011;49296;48.188;11.566;2023-04-03T06:06:46;7.53;;;4.68;;
63201;SDS011;49296;48.188;11.566;2023-04-03T06:09:14;7.13;;;4.80;;
63201;SDS011;49296;48.188;11.566;2023-04-03T06:11:42;7.47;;;4.85;;
63201;SDS011;49296;48.188;11.566;2023-04-03T06:14:09;8.48;;;4.68;;
63201;SDS011;49296;48.188;11.566;2023-04-03T06:16:36;11.80;;;4.72;;
63201;SDS011;49296;48.188;11.566;2023-04-03T06:19:04;8.10;;;5.43;;
63201;SDS011;49296;48.188;11.566;2023-04-03T06:21:32;7.60;;;4.85;;
63201;SDS011;49296;48.188;11.566;2023-04-03T06:24:00;8.77;;;4.63;;
63201;SDS011;49296;48.188;11.566;2023-04-03T06:26:27;8.70;;;5.18;;
63201;SDS011;49296;48.188;11.566;2023-04-03T06:28:53;8.38;;;4.47;;
63201;SDS011;49296;48.188;11.566;2023-04-03T06:31:21;7.22;;;4.88;;
63201;SDS011;49296;48.188;11.566;2023-04-03T06:33:47;7.22;;;4.72;;
63201;SDS011;49296;48.188;11.566;2023-04-03T06:36:14;8.82;;;5.05;;
63201;SDS011;49296;48.188;11.566;2023-04-03T06:38:44;7.50;;;5.43;;
63201;SDS011;49296;48.188;11.566;2023-04-03T06:41:13;8.45;;;4.95;;
63201;SDS011;49296;48.188;11.566;2023-04-03T06:43:41;7.90;;;4.53;;
63201;SDS011;49296;48.188;11.566;2023-04-03T06:46:09;8.20;;;5.07;;
63201;SDS011;49296;48.188;11.566;2023-04-03T06:48:39;8.27;;;4.82;;
63201;SDS011;49296;48.188;11.566;2023-04-03T06:51:07;9.70;;;5.32;;
63201;SDS011;49296;48.188;11.566;2023-04-03T06:53:37;9.50;;;4.70;;
63201;SDS011;49296;48.188;11.566;2023-04-03T06:56:04;8.85;;;5.30;;
63201;SDS011;49296;48.188;11.566;2023-04-03T06:58:32;10.43;;;5.35;;
63201;SDS011;49296;48.188;11.566;2023-04-03T07:00:59;8.68;;;5.47;;
63201;SDS011;49296;48.188;11.566;2023-04-03T07:03:26;8.93;;;5.07;;
63201;SDS011;49296;48.188;11.566;2023-04-03T07:05:52;9.55;;;5.95;;
63201;SDS011;49296;48.188;11.566;2023-04-03T07:08:19;10.95;;;6.03;;
63201;SDS011;49296;48.188;11.566;2023-04-03T07:10:47;7.88;;;5.20;;
63201;SDS011;49296;48.188;11.566;2023-04-03T07:13:15;7.95;;;5.35;;
63201;SDS011;49296;48.188;11.566;2023-04-03T07:15:43;7.70;;;4.80;;
63201;SDS011;49296;48.188;11.566;2023-04-03T07:18:09;8.60;;;5.47;;
63201;SDS011;49296;48.188;11.566;2023-04-03T07:20:36;7.60;;;5.60;;
63201;SDS011;49296;48.188;11.566;2023-04-03T07:23:02;9.15;;;4.82;;
63201;SDS011;49296;48.188;11.566;2023-04-03T07:25:29;9.05;;;5.60;;
63201;SDS011;49296;48.188;11.566;2023-04-03T07:27:58;8.52;;;6.10;;
63201;SDS011;49296;48.188;11.566;2023-04-03T07:30:25;10.65;;;6.03;;
63201;SDS011;49296;48.188;11.566;2023-04-03T07:32:53;8.85;;;5.68;;
63201;SDS011;49296;48.188;11.566;2023-04-03T07:35:20;10.43;;;6.22;;
63201;SDS011;49296;48.188;11.566;2023-04-03T07:37:47;9.35;;;5.63;;
63201;SDS011;49296;48.188;11.566;2023-04-03T07:40:14;10.13;;;6.47;;
63201;SDS011;49296;48.188;11.566;2023-04-03T07:42:40;8.82;;;5.80;;
63201;SDS011;49296;48.188;11.566;2023-04-03T07:45:07;9.30;;;5.53;;
63201;SDS011;49296;48.188;11.566;2023-04-03T07:47:34;10.13;;;5.93;;
63201;SDS011;49296;48.188;11.566;2023-04-03T07:50:02;10.93;;;6.43;;
63201;SDS011;49296;48.188;11.566;2023-04-03T07:52:29;9.80;;;6.07;;
63201;SDS011;49296;48.188;11.566;2023-04-03T07:54:56;8.52;;;5.93;;
63201;SDS011;49296;48.188;11.566;2023-04-03T07:57:23;10.60;;;6.25;;
63201;SDS011;49296;48.188;11.566;2023-04-03T07:59:49;9.35;;;6.20;;
63201;SDS011;49296;48.188;11.566;2023-04-03T08:02:16;9.95;;;6.53;;
63201;SDS011;49296;48.188;11.566;2023-04-03T08:04:43;8.02;;;6.20;;
63201;SDS011;49296;48.188;11.566;2023-04-03T08:07:11;11.80;;;7.20;;
63201;SDS011;49296;48.188;11.566;2023-04-03T08:09:37;12.25;;;7.32;;
63201;SDS011;49296;48.188;11.566;2023-04-03T08:12:04;9.30;;;6.68;;
63201;SDS011;49296;48.188;11.566;2023-04-03T08:14:31;10.45;;;6.85;;
63201;SDS011;49296;48.188;11.566;2023-04-03T08:16:59;12.00;;;7.20;;
63201;SDS011;49296;48.188;11.566;2023-04-03T08:19:27;11.73;;;6.75;;
63201;SDS011;49296;48.188;11.566;2023-04-03T08:21:54;12.48;;;7.50;;
63201;SDS011;49296;48.188;11.566;2023-04-03T08:24:23;12.65;;;8.07;;
63201;SDS011;49296;48.188;11.566;2023-04-03T08:26:50;9.38;;;7.72;;
63201;SDS011;49296;48.188;11.566;2023-04-03T08:29:17;10.32;;;7.20;;
63201;SDS011;49296;48.188;11.566;2023-04-03T08:31:43;11.43;;;6.97;;
63201;SDS011;49296;48.188;11.566;2023-04-03T08:34:10;11.30;;;6.97;;
63201;SDS011;49296;48.188;11.566;2023-04-03T08:36:38;9.93;;;6.50;;
63201;SDS011;49296;48.188;11.566;2023-04-03T08:39:05;11.80;;;6.93;;
63201;SDS011;49296;48.188;11.566;2023-04-03T08:41:34;10.60;;;7.13;;
63201;SDS011;49296;48.188;11.566;2023-04-03T08:44:07;11.02;;;7.55;;
63201;SDS011;49296;48.188;11.566;2023-04-03T08:46:47;14.63;;;8.50;;
63201;SDS011;49296;48.188;11.566;2023-04-03T08:49:23;10.38;;;7.03;;
63201;SDS011;49296;48.188;11.566;2023-04-03T08:51:53;10.75;;;6.90;;
63201;SDS011;49296;48.188;11.566;2023-04-03T08:54:23;11.80;;;7.13;;
63201;SDS011;49296;48.188;11.566;2023-04-03T08:56:55;9.55;;;6.18;;
63201;SDS011;49296;48.188;11.566;2023-04-03T08:59:26;11.87;;;7.80;;
63201;SDS011;49296;48.188;11.566;2023-04-03T09:01:56;9.35;;;6.28;;
63201;SDS011;49296;48.188;11.566;2023-04-03T09:04:25;9.40;;;6.43;;
63201;SDS011;49296;48.188;11.566;2023-04-03T09:06:54;10.60;;;6.85;;
63201;SDS011;49296;48.188;11.566;2023-04-03T09:09:29;10.02;;;7.60;;
63201;SDS011;49296;48.188;11.566;2023-04-03T09:12:04;9.77;;;6.63;;
63201;SDS011;49296;48.188;11.566;2023-04-03T09:14:41;9.57;;;7.07;;
63201;SDS011;49296;48.188;11.566;2023-04-03T09:17:18;9.40;;;7.03;;
63201;SDS011;49296;48.188;11.566;2023-04-03T09:19:53;7.97;;;6.75;;
63201;SDS011;49296;48.188;11.566;2023-04-03T09:22:25;9.90;;;6.72;;
63201;SDS011;49296;48.188;11.566;2023-04-03T09:24:55;11.93;;;7.28;;
63201;SDS011;49296;48.188;11.566;2023-04-03T09:27:26;10.52;;;7.10;;
63201;SDS011;49296;48.188;11.566;2023-04-03T09:29:53;9.88;;;7.32;;
63201;SDS011;49296;48.188;11.566;2023-04-03T09:32:24;10.10;;;7.40;;
63201;SDS011;49296;48.188;11.566;2023-04-03T09:34:53;9.52;;;6.97;;
63201;SDS011;49296;48.188;11.566;2023-04-03T09:37:36;11.88;;;7.47;;
63201;SDS011;49296;48.188;11.566;2023-04-03T09:40:04;9.73;;;6.70;;
63201;SDS011;49296;48.188;11.566;2023-04-03T09:42:54;9.60;;;6.97;;
63201;SDS011;49296;48.188;11.566;2023-04-03T09:45:23;9.50;;;6.57;;
63201;SDS011;49296;48.188;11.566;2023-04-03T09:48:03;9.25;;;6.25;;
63201;SDS011;49296;48.188;11.566;2023-04-03T09:50:32;8.88;;;6.03;;
63201;SDS011;49296;48.188;11.566;2023-04-03T09:53:00;8.60;;;6.47;;
63201;SDS011;49296;48.188;11.566;2023-04-03T09:55:41;10.48;;;6.45;;
63201;SDS011;49296;48.188;11.566;2023-04-03T09:58:23;11.63;;;7.57;;
63201;SDS011;49296;48.188;11.566;2023-04-03T10:00:54;31.70;;;13.90;;
63201;SDS011;49296;48.188;11.566;2023-04-03T10:03:23;17.38;;;10.02;;
63201;SDS011;49296;48.188;11.566;2023-04-03T10:05:52;12.00;;;7.20;;
63201;SDS011;49296;48.188;11.566;2023-04-03T10:08:21;9.57;;;6.40;;
63201;SDS011;49296;48.188;11.566;2023-04-03T10:11:04;9.27;;;6.70;;
63201;SDS011;49296;48.188;11.566;2023-04-03T10:13:49;10.38;;;6.60;;
63201;SDS011;49296;48.188;11.566;2023-04-03T10:16:17;9.90;;;6.88;;
63201;SDS011;49296;48.188;11.566;2023-04-03T10:18:49;8.43;;;6.75;;
63201;SDS011;49296;48.188;11.566;2023-04-03T10:21:28;9.40;;;6.22;;
63201;SDS011;49296;48.188;11.566;2023-04-03T10:24:03;8.82;;;6.57;;
63201;SDS011;49296;48.188;11.566;2023-04-03T10:26:37;9.98;;;6.53;;
63201;SDS011;49296;48.188;11.566;2023-04-03T10:29:14;11.32;;;6.25;;
63201;SDS011;49296;48.188;11.566;2023-04-03T10:32:03;9.95;;;5.72;;
63201;SDS011;49296;48.188;11.566;2023-04-03T10:34:45;9.50;;;5.45;;
63201;SDS011;49296;48.188;11.566;2023-04-03T10:37:13;8.32;;;5.70;;
63201;SDS011;49296;48.188;11.566;2023-04-03T10:39:50;7.07;;;5.25;;
63201;SDS011;49296;48.188;11.566;2023-04-03T10:42:24;8.48;;;5.20;;
63201;SDS011;49296;48.188;11.566;2023-04-03T10:45:06;8.32;;;4.88;;
63201;SDS011;49296;48.188;11.566;2023-04-03T10:47:43;10.07;;;4.65;;
63201;SDS011;49296;48.188;11.566;2023-04-03T10:50:23;9.48;;;4.65;;
63201;SDS011;49296;48.188;11.566;2023-04-03T10:52:56;7.63;;;4.22;;
63201;SDS011;49296;48.188;11.566;2023-04-03T10:55:30;10.90;;;4.90;;
63201;SDS011;49296;48.188;11.566;2023-04-03T10:58:01;9.32;;;5.18;;
63201;SDS011;49296;48.188;11.566;2023-04-03T11:00:33;5.72;;;4.22;;
63201;SDS011;49296;48.188;11.566;2023-04-03T11:03:05;6.65;;;4.38;;
63201;SDS011;49296;48.188;11.566;2023-04-03T11:05:36;7.85;;;4.60;;
63201;SDS011;49296;48.188;11.566;2023-04-03T11:08:10;7.65;;;4.93;;
63201;SDS011;49296;48.188;11.566;2023-04-03T11:10:53;8.20;;;4.65;;
63201;SDS011;49296;48.188;11.566;2023-04-03T11:13:24;6.50;;;4.32;;
63201;SDS011;49296;48.188;11.566;2023-04-03T11:15:56;9.48;;;4.53;;
63201;SDS011;49296;48.188;11.566;2023-04-03T11:18:25;9.93;;;4.80;;
63201;SDS011;49296;48.188;11.566;2023-04-03T11:20:59;7.88;;;4.78;;
63201;SDS011;49296;48.188;11.566;2023-04-03T11:23:30;7.40;;;4.88;;
63201;SDS011;49296;48.188;11.566;2023-04-03T11:26:04;9.50;;;5.37;;
63201;SDS011;49296;48.188;11.566;2023-04-03T11:28:35;8.68;;;4.93;;
63201;SDS011;49296;48.188;11.566;2023-04-03T11:31:06;7.07;;;3.72;;
63201;SDS011;49296;48.188;11.566;2023-04-03T11:33:43;7.47;;;3.75;;
63201;SDS011;49296;48.188;11.566;2023-04-03T11:36:18;7.07;;;4.18;;
63201;SDS011;49296;48.188;11.566;2023-04-03T11:38:47;6.88;;;3.10;;
63201;SDS011;49296;48.188;11.566;2023-04-03T11:41:16;5.88;;;3.25;;
63201;SDS011;49296;48.188;11.566;2023-04-03T11:43:55;6.00;;;3.05;;
63201;SDS011;49296;48.188;11.566;2023-04-03T11:46:25;6.45;;;3.25;;
63201;SDS011;49296;48.188;11.566;2023-04-03T11:52:23;5.30;;;2.90;;
63201;SDS011;49296;48.188;11.566;2023-04-03T11:55:44;5.65;;;3.08;;
63201;SDS011;49296;48.188;11.566;2023-04-03T11:58:19;7.20;;;3.10;;
63201;SDS011;49296;48.188;11.566;2023-04-03T12:00:57;7.10;;;3.00;;
63201;SDS011;49296;48.188;11.566;2023-04-03T12:06:49;5.45;;;2.53;;
63201;SDS011;49296;48.188;11.566;2023-04-03T12:09:35;5.20;;;2.85;;
63201;SDS011;49296;48.188;11.566;2023-04-03T12:12:24;4.57;;;2.63;;
63201;SDS011;49296;48.188;11.566;2023-04-03T12:15:06;5.65;;;2.58;;
63201;SDS011;49296;48.188;11.566;2023-04-03T12:17:53;4.90;;;2.60;;
63201;SDS011;49296;48.188;11.566;2023-04-03T12:23:24;5.63;;;2.65;;
63201;SDS011;49296;48.188;11.566;2023-04-03T12:25:59;4.38;;;2.65;;
63201;SDS011;49296;48.188;11.566;2023-04-03T12:28:31;5.30;;;2.78;;
63201;SDS011;49296;48.188;11.566;2023-04-03T12:31:04;6.65;;;2.85;;
63201;SDS011;49296;48.188;11.566;2023-04-03T12:33:34;4.65;;;2.50;;
63201;SDS011;49296;48.188;11.566;2023-04-03T12:36:28;4.25;;;2.53;;
63201;SDS011;49296;48.188;11.566;2023-04-03T12:39:12;5.05;;;2.47;;
63201;SDS011;49296;48.188;11.566;2023-04-03T12:41:48;6.43;;;2.80;;
63201;SDS011;49296;48.188;11.566;2023-04-03T12:44:30;4.82;;;2.53;;
63201;SDS011;49296;48.188;11.566;2023-04-03T12:47:10;6.35;;;3.45;;
63201;SDS011;49296;48.188;11.566;2023-04-03T12:49:48;5.70;;;2.58;;
63201;SDS011;49296;48.188;11.566;2023-04-03T12:52:21;5.63;;;2.80;;
63201;SDS011;49296;48.188;11.566;2023-04-03T12:54:56;5.15;;;2.63;;
63201;SDS011;49296;48.188;11.566;2023-04-03T12:57:27;5.18;;;2.97;;
63201;SDS011;49296;48.188;11.566;2023-04-03T12:59:54;4.00;;;2.50;;
63201;SDS011;49296;48.188;11.566;2023-04-03T13:02:22;5.00;;;2.70;;
63201;SDS011;49296;48.188;11.566;2023-04-03T13:04:50;4.75;;;2.75;;
63201;SDS011;49296;48.188;11.566;2023-04-03T13:07:19;5.40;;;2.60;;
63201;SDS011;49296;48.188;11.566;2023-04-03T13:09:57;6.07;;;2.60;;
63201;SDS011;49296;48.188;11.566;2023-04-03T13:12:25;7.07;;;3.15;;
63201;SDS011;49296;48.188;11.566;2023-04-03T13:14:52;4.85;;;2.42;;
63201;SDS011;49296;48.188;11.566;2023-04-03T13:17:21;3.92;;;2.25;;
63201;SDS011;49296;48.188;11.566;2023-04-03T13:19:48;4.65;;;2.70;;
63201;SDS011;49296;48.188;11.566;2023-04-03T13:22:21;5.63;;;2.72;;
63201;SDS011;49296;48.188;11.566;2023-04-03T13:24:55;7.15;;;3.13;;
63201;SDS011;49296;48.188;11.566;2023-04-03T13:27:24;5.80;;;2.78;;
63201;SDS011;49296;48.188;11.566;2023-04-03T13:32:49;5.15;;;3.20;;
63201;SDS011;49296;48.188;11.566;2023-04-03T13:38:21;7.15;;;4.30;;
63201;SDS011;49296;48.188;11.566;2023-04-03T13:43:50;5.65;;;2.65;;
63201;SDS011;49296;48.188;11.566;2023-04-03T13:46:21;8.88;;;4.55;;
63201;SDS011;49296;48.188;11.566;2023-04-03T13:48:52;11.10;;;4.80;;
63201;SDS011;49296;48.188;11.566;2023-04-03T13:51:21;9.93;;;3.72;;
63201;SDS011;49296;48.188;11.566;2023-04-03T13:53:52;6.47;;;3.05;;
63201;SDS011;49296;48.188;11.566;2023-04-03T13:56:27;7.13;;;3.20;;
63201;SDS011;49296;48.188;11.566;2023-04-03T13:58:59;5.03;;;2.15;;
63201;SDS011;49296;48.188;11.566;2023-04-03T14:01:40;4.65;;;2.28;;
63201;SDS011;49296;48.188;11.566;2023-04-03T14:06:38;5.10;;;2.15;;
63201;SDS011;49296;48.188;11.566;2023-04-03T14:09:05;5.38;;;2.33;;
63201;SDS011;49296;48.188;11.566;2023-04-03T14:11:32;6.13;;;2.65;;
63201;SDS011;49296;48.188;11.566;2023-04-03T14:14:01;5.20;;;2.50;;
63201;SDS011;49296;48.188;11.566;2023-04-03T14:16:32;4.78;;;2.95;;
63201;SDS011;49296;48.188;11.566;2023-04-03T14:19:07;4.68;;;2.50;;
63201;SDS011;49296;48.188;11.566;2023-04-03T14:21:42;4.28;;;2.53;;
63201;SDS011;49296;48.188;11.566;2023-04-03T14:24:10;3.72;;;2.30;;
63201;SDS011;49296;48.188;11.566;2023-04-03T14:26:38;4.82;;;2.67;;
63201;SDS011;49296;48.188;11.566;2023-04-03T14:29:04;4.05;;;2.10;;
63201;SDS011;49296;48.188;11.566;2023-04-03T14:31:31;3.92;;;2.40;;
63201;SDS011;49296;48.188;11.566;2023-04-03T14:33:58;5.63;;;2.65;;
63201;SDS011;49296;48.188;11.566;2023-04-03T14:36:25;4.78;;;2.60;;
63201;SDS011;49296;48.188;11.566;2023-04-03T14:38:54;5.13;;;2.10;;
63201;SDS011;49296;48.188;11.566;2023-04-03T14:41:24;3.95;;;2.35;;
63201;SDS011;49296;48.188;11.566;2023-04-03T14:43:51;5.35;;;2.20;;
63201;SDS011;49296;48.188;11.566;2023-04-03T14:46:19;3.53;;;1.90;;
63201;SDS011;49296;48.188;11.566;2023-04-03T14:48:50;3.40;;;1.85;;
63201;SDS011;49296;48.188;11.566;2023-04-03T14:51:16;3.33;;;1.85;;
63201;SDS011;49296;48.188;11.566;2023-04-03T14:53:43;4.55;;;2.20;;
63201;SDS011;49296;48.188;11.566;2023-04-03T14:56:11;7.15;;;2.03;;
63201;SDS011;49296;48.188;11.566;2023-04-03T14:58:41;4.13;;;1.73;;
63201;SDS011;49296;48.188;11.566;2023-04-03T15:01:09;4.70;;;2.28;;
63201;SDS011;49296;48.188;11.566;2023-04-03T15:03:36;5.65;;;2.08;;
63201;SDS011;49296;48.188;11.566;2023-04-03T15:06:03;4.15;;;1.77;;
63201;SDS011;49296;48.188;11.566;2023-04-03T15:08:30;4.75;;;2.05;;
63201;SDS011;49296;48.188;11.566;2023-04-03T15:10:57;3.80;;;1.70;;